createdAt,value
2022-10-20T00:00:57.386Z,11.98
2022-10-20T00:03:25.443Z,12.04
2022-10-20T00:05:53.326Z,12.05
2022-10-20T00:08:21.238Z,11.99
2022-10-20T00:10:55.349Z,11.98
2022-10-20T00:13:23.155Z,11.94
2022-10-20T00:15:51.310Z,11.92
2022-10-20T00:18:18.866Z,11.96
2022-10-20T00:20:46.870Z,11.92
2022-10-20T00:23:14.479Z,11.81
2022-10-20T00:25:42.106Z,11.82
2022-10-20T00:28:10.947Z,11.80
2022-10-20T00:30:38.442Z,11.75
2022-10-20T00:33:06.442Z,11.78
2022-10-20T00:35:38.130Z,11.80
2022-10-20T00:38:05.763Z,11.80
2022-10-20T00:40:33.355Z,11.81
2022-10-20T00:43:00.833Z,11.78
2022-10-20T00:45:29.662Z,11.76
2022-10-20T00:48:01.536Z,11.81
2022-10-20T00:50:33.215Z,11.84
2022-10-20T00:53:02.518Z,11.86
2022-10-20T00:55:33.233Z,12.02
2022-10-20T00:58:02.311Z,12.03
2022-10-20T01:00:31.842Z,11.93
2022-10-20T01:03:02.657Z,12.11
2022-10-20T01:05:30.167Z,12.24
2022-10-20T01:07:57.621Z,12.41
2022-10-20T01:10:27.833Z,12.37
2022-10-20T01:13:03.935Z,12.15
2022-10-20T01:15:39.506Z,11.79
2022-10-20T01:18:13.414Z,11.81
2022-10-20T01:21:04.826Z,11.93
2022-10-20T01:23:50.253Z,12.01
2022-10-20T01:26:48.489Z,12.07
2022-10-20T01:29:25.783Z,12.17
2022-10-20T01:32:04.870Z,12.23
2022-10-20T01:34:37.213Z,12.30
2022-10-20T01:37:08.696Z,12.36
2022-10-20T01:39:43.803Z,12.30
2022-10-20T01:42:18.058Z,12.18
2022-10-20T01:44:49.003Z,12.11
2022-10-20T01:47:17.946Z,11.82
2022-10-20T01:49:48.490Z,11.84
2022-10-20T01:52:17.007Z,11.63
2022-10-20T01:54:44.581Z,11.74
2022-10-20T01:57:30.084Z,11.82
2022-10-20T02:00:07.095Z,11.91
2022-10-20T02:02:57.417Z,12.07
2022-10-20T02:05:38.869Z,12.18
2022-10-20T02:08:13.414Z,12.15
2022-10-20T02:10:46.589Z,12.15
2022-10-20T02:13:15.758Z,11.98
2022-10-20T02:15:48.069Z,11.72
2022-10-20T02:18:19.986Z,11.52
2022-10-20T02:20:51.389Z,11.55
2022-10-20T02:23:19.407Z,11.63
2022-10-20T02:25:49.420Z,11.66
2022-10-20T02:28:18.128Z,11.55
2022-10-20T02:30:48.522Z,11.66
2022-10-20T02:33:17.720Z,11.61
2022-10-20T02:35:52.235Z,11.69
2022-10-20T02:38:19.717Z,11.72
2022-10-20T02:40:47.511Z,11.76
2022-10-20T02:43:15.012Z,11.75
2022-10-20T02:45:42.536Z,11.87
2022-10-20T02:48:11.422Z,12.00
2022-10-20T02:50:39.613Z,12.13
2022-10-20T02:53:07.423Z,12.06
2022-10-20T02:55:34.923Z,12.12
2022-10-20T02:58:02.396Z,12.13
2022-10-20T03:00:31.123Z,12.17
2022-10-20T03:02:58.614Z,12.19
2022-10-20T03:05:28.014Z,12.27
2022-10-20T03:07:55.507Z,12.24
2022-10-20T03:10:23.005Z,12.22
2022-10-20T03:12:50.577Z,12.19
2022-10-20T03:15:18.224Z,12.12
2022-10-20T03:17:45.734Z,11.96
2022-10-20T03:20:13.232Z,11.96
2022-10-20T03:22:42.034Z,11.90
2022-10-20T03:25:09.740Z,11.94
2022-10-20T03:27:37.531Z,12.04
2022-10-20T03:30:06.024Z,12.08
2022-10-20T03:32:33.797Z,12.23
2022-10-20T03:35:01.460Z,12.20
2022-10-20T03:37:28.925Z,12.39
2022-10-20T03:39:57.737Z,12.33
2022-10-20T03:42:25.298Z,12.41
2022-10-20T03:44:52.758Z,12.54
2022-10-20T03:47:20.294Z,12.78
2022-10-20T03:49:47.758Z,12.88
2022-10-20T03:52:15.233Z,12.84
2022-10-20T03:54:42.692Z,12.98
2022-10-20T03:57:11.517Z,13.09
2022-10-20T03:59:38.964Z,13.18
2022-10-20T04:02:06.626Z,13.22
2022-10-20T04:04:34.186Z,13.16
2022-10-20T04:07:01.648Z,13.13
2022-10-20T04:09:29.135Z,13.06
2022-10-20T04:11:56.643Z,12.94
2022-10-20T04:14:27.732Z,13.00
2022-10-20T04:16:55.197Z,13.13
2022-10-20T04:19:22.693Z,13.21
2022-10-20T04:21:50.181Z,13.23
2022-10-20T04:24:17.683Z,13.20
2022-10-20T04:26:45.172Z,13.07
2022-10-20T04:29:12.745Z,13.15
2022-10-20T04:31:45.240Z,13.01
2022-10-20T04:34:14.368Z,12.90
2022-10-20T04:36:41.884Z,12.89
2022-10-20T04:39:09.935Z,12.84
2022-10-20T04:41:37.429Z,12.90
2022-10-20T04:44:05.200Z,13.10
2022-10-20T04:46:32.733Z,13.08
2022-10-20T04:49:01.630Z,13.05
2022-10-20T04:51:29.145Z,13.11
2022-10-20T04:53:56.661Z,13.25
2022-10-20T04:56:24.366Z,13.46
2022-10-20T04:58:52.941Z,13.57
2022-10-20T05:01:21.805Z,13.53
2022-10-20T05:03:49.416Z,13.53
2022-10-20T05:06:20.490Z,13.52
2022-10-20T05:08:51.606Z,13.51
2022-10-20T05:11:20.826Z,13.64
2022-10-20T05:13:48.353Z,13.60
2022-10-20T05:16:17.385Z,13.66
2022-10-20T05:18:45.952Z,13.71
2022-10-20T05:21:15.406Z,13.79
2022-10-20T05:23:45.089Z,13.75
2022-10-20T05:26:14.263Z,13.85
2022-10-20T05:28:45.062Z,13.99
2022-10-20T05:31:12.598Z,14.06
2022-10-20T05:33:44.285Z,14.03
2022-10-20T05:36:15.880Z,14.09
2022-10-20T05:38:47.246Z,14.15
2022-10-20T05:41:16.388Z,14.20
2022-10-20T05:43:43.893Z,14.15
2022-10-20T05:46:11.373Z,14.12
2022-10-20T05:48:42.929Z,14.02
2022-10-20T05:51:14.700Z,14.06
2022-10-20T05:53:42.914Z,13.69
2022-10-20T05:56:13.891Z,13.91
2022-10-20T05:58:43.126Z,14.01
2022-10-20T06:01:16.948Z,14.12
2022-10-20T06:03:47.513Z,14.14
2022-10-20T06:06:14.993Z,14.09
2022-10-20T06:08:42.544Z,14.09
2022-10-20T06:11:14.314Z,14.18
2022-10-20T06:13:42.348Z,14.27
2022-10-20T06:16:11.811Z,14.29
2022-10-20T06:18:39.593Z,14.25
2022-10-20T06:21:08.995Z,14.08
2022-10-20T06:23:36.487Z,14.03
2022-10-20T06:26:05.405Z,14.03
2022-10-20T06:28:36.454Z,13.89
2022-10-20T06:31:11.822Z,14.12
2022-10-20T06:33:39.761Z,13.99
2022-10-20T06:36:07.733Z,14.06
2022-10-20T06:38:35.411Z,14.17
2022-10-20T06:41:03.187Z,14.22
2022-10-20T06:43:30.737Z,14.17
2022-10-20T06:46:02.130Z,14.09
2022-10-20T06:48:29.658Z,14.08
2022-10-20T06:50:57.839Z,14.16
2022-10-20T06:53:26.148Z,14.13
2022-10-20T06:55:58.185Z,13.98
2022-10-20T06:58:25.842Z,14.16
2022-10-20T07:01:02.646Z,14.24
2022-10-20T07:03:33.667Z,13.97
2022-10-20T07:06:01.713Z,14.08
2022-10-20T07:08:30.340Z,14.21
2022-10-20T07:11:02.114Z,14.29
2022-10-20T07:13:30.588Z,14.22
2022-10-20T07:15:59.083Z,14.38
2022-10-20T07:18:30.090Z,14.07
2022-10-20T07:20:58.874Z,14.30
2022-10-20T07:23:26.596Z,14.13
2022-10-20T07:26:00.745Z,13.92
2022-10-20T07:28:28.210Z,13.96
2022-10-20T07:30:55.756Z,13.98
2022-10-20T07:33:23.493Z,14.01
2022-10-20T07:35:52.337Z,13.93
2022-10-20T07:38:19.864Z,13.95
2022-10-20T07:40:47.343Z,14.00
2022-10-20T07:43:14.883Z,14.11
2022-10-20T07:45:42.420Z,14.06
2022-10-20T07:48:10.605Z,14.17
2022-10-20T07:50:40.148Z,14.26
2022-10-20T07:53:08.988Z,14.26
2022-10-20T07:55:38.960Z,14.23
2022-10-20T07:58:06.914Z,14.28
2022-10-20T08:00:34.461Z,14.14
2022-10-20T08:03:01.982Z,14.23
2022-10-20T08:05:29.732Z,14.51
2022-10-20T08:07:58.262Z,14.62
2022-10-20T08:10:27.360Z,14.77
2022-10-20T08:12:54.845Z,14.70
2022-10-20T08:15:25.203Z,14.78
2022-10-20T08:17:52.727Z,14.74
2022-10-20T08:20:22.404Z,14.74
2022-10-20T08:22:52.444Z,14.90
2022-10-20T08:25:20.290Z,14.95
2022-10-20T08:27:49.204Z,15.10
2022-10-20T08:30:23.723Z,15.25
2022-10-20T08:32:52.118Z,15.39
2022-10-20T08:35:19.693Z,15.37
2022-10-20T08:37:47.206Z,15.59
2022-10-20T08:40:18.702Z,15.67
2022-10-20T08:42:47.657Z,15.67
2022-10-20T08:45:18.238Z,15.69
2022-10-20T08:47:48.214Z,15.55
2022-10-20T08:50:18.838Z,15.62
2022-10-20T08:52:48.215Z,15.61
2022-10-20T08:55:25.631Z,15.86
2022-10-20T08:57:53.114Z,15.90
2022-10-20T09:00:24.142Z,15.76
2022-10-20T09:02:52.301Z,15.73
2022-10-20T09:05:24.038Z,15.68
2022-10-20T09:07:52.229Z,15.58
2022-10-20T09:10:29.194Z,15.53
2022-10-20T09:12:57.213Z,15.78
2022-10-20T09:15:27.344Z,15.78
2022-10-20T09:17:57.794Z,15.86
2022-10-20T09:20:28.360Z,15.87
2022-10-20T09:22:55.955Z,15.83
2022-10-20T09:25:27.283Z,15.80
2022-10-20T09:27:56.444Z,15.94
2022-10-20T09:30:34.224Z,15.90
2022-10-20T09:33:20.562Z,15.89
2022-10-20T09:35:49.502Z,15.98
2022-10-20T09:38:19.678Z,16.04
2022-10-20T09:40:58.015Z,16.17
2022-10-20T09:43:27.867Z,16.30
2022-10-20T09:46:01.552Z,16.35
2022-10-20T09:48:32.672Z,16.07
2022-10-20T09:51:01.750Z,15.83
2022-10-20T09:53:33.318Z,15.87
2022-10-20T09:56:01.070Z,15.82
2022-10-20T09:58:31.197Z,15.89
2022-10-20T10:01:06.585Z,15.82
2022-10-20T10:03:40.472Z,15.77
2022-10-20T10:06:22.366Z,15.93
2022-10-20T10:08:49.899Z,16.03
2022-10-20T10:11:20.422Z,16.14
2022-10-20T10:13:50.694Z,16.02
2022-10-20T10:16:21.672Z,15.80
2022-10-20T10:18:57.466Z,15.78
2022-10-20T10:21:25.393Z,15.76
2022-10-20T10:23:55.606Z,15.73
2022-10-20T10:26:45.033Z,15.57
2022-10-20T10:29:24.281Z,15.69
2022-10-20T10:31:58.782Z,15.45
2022-10-20T10:35:01.023Z,15.50
2022-10-20T10:37:32.333Z,15.64
2022-10-20T10:40:03.455Z,15.51
2022-10-20T10:42:55.081Z,15.73
2022-10-20T10:45:41.152Z,15.77
2022-10-20T10:48:45.547Z,15.84
2022-10-20T10:51:26.403Z,15.94
2022-10-20T10:54:11.602Z,15.80
2022-10-20T10:56:44.980Z,16.01
2022-10-20T10:59:18.854Z,16.07
2022-10-20T11:02:10.343Z,16.14
2022-10-20T11:04:58.117Z,16.22
2022-10-20T11:07:33.947Z,15.88
2022-10-20T11:10:11.686Z,15.93
2022-10-20T11:12:53.530Z,15.94
2022-10-20T11:15:35.619Z,15.87
2022-10-20T11:18:10.257Z,15.74
2022-10-20T11:20:48.234Z,15.43
2022-10-20T11:23:45.466Z,15.61
2022-10-20T11:26:23.143Z,15.50
2022-10-20T11:28:55.590Z,15.51
2022-10-20T11:31:27.599Z,15.47
2022-10-20T11:34:01.302Z,15.42
2022-10-20T11:36:36.806Z,15.42
2022-10-20T11:39:06.624Z,15.46
2022-10-20T11:44:13.297Z,15.44
2022-10-20T11:46:46.880Z,15.35
2022-10-20T11:49:14.589Z,15.51
2022-10-20T11:52:09.276Z,15.46
2022-10-20T11:54:49.036Z,15.52
2022-10-20T11:57:29.347Z,15.34
2022-10-20T12:00:11.614Z,15.39
2022-10-20T12:03:10.992Z,15.67
2022-10-20T12:06:11.005Z,15.96
2022-10-20T12:09:06.384Z,15.96
2022-10-20T12:11:42.866Z,15.93
2022-10-20T12:14:20.912Z,15.99
2022-10-20T12:17:13.648Z,16.14
2022-10-20T12:19:41.793Z,15.90
2022-10-20T12:22:41.617Z,16.02
2022-10-20T12:25:36.009Z,15.87
2022-10-20T12:28:40.553Z,16.01
2022-10-20T12:31:08.272Z,16.01
2022-10-20T12:33:39.029Z,15.90
2022-10-20T12:36:30.220Z,16.00
2022-10-20T12:39:15.885Z,15.84
2022-10-20T12:41:57.117Z,15.76
2022-10-20T12:44:25.389Z,15.80
2022-10-20T12:46:56.004Z,15.92
2022-10-20T12:49:29.283Z,15.91
2022-10-20T12:51:59.716Z,15.94
2022-10-20T12:54:34.495Z,15.97
2022-10-20T12:57:06.948Z,16.01
2022-10-20T12:59:38.880Z,16.13
2022-10-20T13:02:44.080Z,16.22
2022-10-20T13:05:48.916Z,16.16
2022-10-20T13:08:29.425Z,16.11
2022-10-20T13:11:18.075Z,15.85
2022-10-20T13:14:05.672Z,15.57
2022-10-20T13:16:34.922Z,15.67
2022-10-20T13:19:02.827Z,15.75
2022-10-20T13:21:35.077Z,15.89
2022-10-20T13:24:16.137Z,15.88
2022-10-20T13:26:50.185Z,15.92
2022-10-20T13:29:25.474Z,15.78
2022-10-20T13:32:05.855Z,15.91
2022-10-20T13:34:41.982Z,16.14
2022-10-20T13:37:23.684Z,16.21
2022-10-20T13:40:00.366Z,16.40
2022-10-20T13:42:42.969Z,16.47
2022-10-20T13:45:22.697Z,16.57
2022-10-20T13:47:52.989Z,16.75
2022-10-20T13:50:24.397Z,16.90
2022-10-20T13:52:55.901Z,16.97
2022-10-20T13:55:26.034Z,17.06
2022-10-20T13:57:56.876Z,16.85
2022-10-20T14:00:29.015Z,16.92
2022-10-20T14:03:00.156Z,16.85
2022-10-20T14:05:29.286Z,16.81
2022-10-20T14:07:57.182Z,16.59
2022-10-20T14:10:29.958Z,16.59
2022-10-20T14:12:58.045Z,16.44
2022-10-20T14:15:31.499Z,16.41
2022-10-20T14:18:01.204Z,16.12
2022-10-20T14:20:29.781Z,16.11
2022-10-20T14:22:59.277Z,16.17
2022-10-20T14:25:27.829Z,16.22
2022-10-20T14:27:56.697Z,16.20
2022-10-20T14:30:26.506Z,16.25
2022-10-20T14:32:55.770Z,16.36
2022-10-20T14:35:39.853Z,16.46
2022-10-20T14:38:17.030Z,16.62
2022-10-20T14:40:51.657Z,16.73
2022-10-20T14:43:22.005Z,16.88
2022-10-20T14:45:55.110Z,16.87
2022-10-20T14:48:25.292Z,16.88
2022-10-20T14:50:54.969Z,16.96
2022-10-20T14:53:34.457Z,17.08
2022-10-20T14:56:03.650Z,17.20
2022-10-20T14:58:39.414Z,17.30
2022-10-20T15:01:22.658Z,17.37
2022-10-20T15:04:14.346Z,17.37
2022-10-20T15:06:42.253Z,17.06
2022-10-20T15:09:18.936Z,17.20
2022-10-20T15:11:46.715Z,17.04
2022-10-20T15:14:17.078Z,17.19
2022-10-20T15:16:46.160Z,17.36
2022-10-20T15:19:28.845Z,17.11
2022-10-20T15:22:02.890Z,16.93
2022-10-20T15:24:30.497Z,16.79
2022-10-20T15:26:58.609Z,16.58
2022-10-20T15:29:27.063Z,16.84
2022-10-20T15:31:54.761Z,16.89
2022-10-20T15:34:23.938Z,16.84
2022-10-20T15:36:51.438Z,16.64
2022-10-20T15:39:18.952Z,16.47
2022-10-20T15:41:49.018Z,16.49
2022-10-20T15:44:21.938Z,16.36
2022-10-20T15:46:52.213Z,16.37
2022-10-20T15:49:19.904Z,16.12
2022-10-20T15:51:50.367Z,16.19
2022-10-20T15:54:21.286Z,16.22
2022-10-20T15:56:49.104Z,15.93
2022-10-20T15:59:16.593Z,15.86
2022-10-20T16:01:44.045Z,15.92
2022-10-20T16:04:18.456Z,15.72
2022-10-20T16:06:46.028Z,15.75
2022-10-20T16:09:16.142Z,15.54
2022-10-20T16:11:44.092Z,15.68
2022-10-20T16:14:11.785Z,15.57
2022-10-20T16:16:39.448Z,15.79
2022-10-20T16:19:06.969Z,15.73
2022-10-20T16:21:34.809Z,15.77
2022-10-20T16:24:02.354Z,15.85
2022-10-20T16:26:31.187Z,15.67
2022-10-20T16:28:58.722Z,15.74
2022-10-20T16:31:26.356Z,15.65
2022-10-20T16:33:53.840Z,15.66
2022-10-20T16:36:21.720Z,15.55
2022-10-20T16:38:49.283Z,15.58
2022-10-20T16:41:18.117Z,15.61
2022-10-20T16:43:47.279Z,15.64
2022-10-20T16:46:16.112Z,15.47
2022-10-20T16:48:47.740Z,15.54
2022-10-20T16:51:17.615Z,15.53
2022-10-20T16:53:45.696Z,15.61
2022-10-20T16:56:16.661Z,15.73
2022-10-20T16:58:49.262Z,15.62
2022-10-20T17:01:18.387Z,15.53
2022-10-20T17:03:47.665Z,15.57
2022-10-20T17:06:16.612Z,15.57
2022-10-20T17:08:44.363Z,15.51
2022-10-20T17:11:14.134Z,15.53
2022-10-20T17:13:42.405Z,15.52
2022-10-20T17:16:13.564Z,15.62
2022-10-20T17:18:41.120Z,15.60
2022-10-20T17:21:09.155Z,15.45
2022-10-20T17:23:41.646Z,15.41
2022-10-20T17:26:12.722Z,15.46
2022-10-20T17:28:40.212Z,15.44
2022-10-20T17:31:08.945Z,15.40
2022-10-20T17:33:39.087Z,15.31
2022-10-20T17:36:07.754Z,15.21
2022-10-20T17:38:36.413Z,15.21
2022-10-20T17:41:04.809Z,15.24
2022-10-20T17:43:33.037Z,15.29
2022-10-20T17:46:02.367Z,15.19
2022-10-20T17:48:30.436Z,15.32
2022-10-20T17:51:04.417Z,15.29
2022-10-20T17:53:33.158Z,15.29
2022-10-20T17:56:07.449Z,15.20
2022-10-20T17:58:35.521Z,15.12
2022-10-20T18:01:10.477Z,15.16
2022-10-20T18:03:38.709Z,15.06
2022-10-20T18:06:13.402Z,14.99
2022-10-20T18:08:41.558Z,15.08
2022-10-20T18:11:10.584Z,15.14
2022-10-20T18:13:38.715Z,15.08
2022-10-20T18:16:08.361Z,15.21
2022-10-20T18:18:36.154Z,15.26
2022-10-20T18:21:04.759Z,15.10
2022-10-20T18:23:36.073Z,15.17
2022-10-20T18:26:08.423Z,15.02
2022-10-20T18:28:36.536Z,15.02
2022-10-20T18:31:08.108Z,15.04
2022-10-20T18:33:35.608Z,15.01
2022-10-20T18:36:04.316Z,14.95
2022-10-20T18:38:36.372Z,15.06
2022-10-20T18:41:07.936Z,15.07
2022-10-20T18:43:35.590Z,15.10
2022-10-20T18:46:04.281Z,15.17
2022-10-20T18:48:32.426Z,15.20
2022-10-20T18:51:01.677Z,15.33
2022-10-20T18:53:30.490Z,15.29
2022-10-20T18:56:04.075Z,15.30
2022-10-20T18:58:33.143Z,15.35
2022-10-20T19:01:02.224Z,15.34
2022-10-20T19:03:31.398Z,15.38
2022-10-20T19:06:00.070Z,15.33
2022-10-20T19:08:27.734Z,15.37
2022-10-20T19:10:55.250Z,15.26
2022-10-20T19:13:25.757Z,15.43
2022-10-20T19:15:53.850Z,15.35
2022-10-20T19:18:21.778Z,15.32
2022-10-20T19:20:56.198Z,15.28
2022-10-20T19:23:24.135Z,15.29
2022-10-20T19:26:03.544Z,15.17
2022-10-20T19:28:34.317Z,15.19
2022-10-20T19:31:02.422Z,15.24
2022-10-20T19:33:30.392Z,15.28
2022-10-20T19:35:57.896Z,15.17
2022-10-20T19:38:25.367Z,15.23
2022-10-20T19:40:54.355Z,15.28
2022-10-20T19:43:21.833Z,15.29
2022-10-20T19:45:50.602Z,15.32
2022-10-20T19:48:19.827Z,15.28
2022-10-20T19:50:47.370Z,15.46
2022-10-20T19:53:14.849Z,15.55
2022-10-20T19:55:42.316Z,15.38
2022-10-20T20:00:43.984Z,15.37
2022-10-20T20:03:12.921Z,15.28
2022-10-20T20:05:40.403Z,15.44
2022-10-20T20:08:08.278Z,15.32
2022-10-20T20:10:36.417Z,15.27
2022-10-20T20:13:04.533Z,15.23
2022-10-20T20:15:32.234Z,15.27
2022-10-20T20:17:59.699Z,15.34
2022-10-20T20:20:28.550Z,15.54
2022-10-20T20:22:55.998Z,15.51
2022-10-20T20:25:23.465Z,15.39
2022-10-20T20:27:50.920Z,15.43
2022-10-20T20:30:18.456Z,15.39
2022-10-20T20:32:47.802Z,15.41
2022-10-20T20:35:18.329Z,15.50
2022-10-20T20:37:47.145Z,15.47
2022-10-20T20:40:14.837Z,15.45
2022-10-20T20:42:42.288Z,15.32
2022-10-20T20:45:10.964Z,15.43
2022-10-20T20:47:38.800Z,15.42
2022-10-20T20:50:07.554Z,15.43
2022-10-20T20:52:35.057Z,15.39
2022-10-20T20:55:04.175Z,15.48
2022-10-20T20:57:31.628Z,15.45
2022-10-20T20:59:59.114Z,15.42
2022-10-20T21:02:26.554Z,15.44
2022-10-20T21:04:54.022Z,15.51
2022-10-20T21:07:21.499Z,15.50
2022-10-20T21:09:49.492Z,15.57
2022-10-20T21:12:18.306Z,15.52
2022-10-20T21:14:48.192Z,15.54
2022-10-20T21:17:15.659Z,15.54
2022-10-20T21:19:43.157Z,15.61
2022-10-20T21:22:10.874Z,15.58
2022-10-20T21:24:38.519Z,15.66
2022-10-20T21:27:06.346Z,15.58
2022-10-20T21:29:35.168Z,15.59
2022-10-20T21:32:02.654Z,15.58
2022-10-20T21:34:30.301Z,15.66
2022-10-20T21:36:57.775Z,15.56
2022-10-20T21:39:25.518Z,15.54
2022-10-20T21:41:55.959Z,15.56
2022-10-20T21:44:26.281Z,15.62
2022-10-20T21:46:59.976Z,15.53
2022-10-20T21:49:29.654Z,15.70
2022-10-20T21:52:00.649Z,15.76
2022-10-20T21:54:29.772Z,15.67
2022-10-20T21:56:59.531Z,15.68
2022-10-20T21:59:30.589Z,15.80
2022-10-20T22:02:00.801Z,15.86
2022-10-20T22:04:30.034Z,15.85
2022-10-20T22:06:59.160Z,15.96
2022-10-20T22:09:29.177Z,15.87
2022-10-20T22:11:58.869Z,15.80
2022-10-20T22:14:30.304Z,15.61
2022-10-20T22:16:59.780Z,15.76
2022-10-20T22:19:27.496Z,15.85
2022-10-20T22:21:55.327Z,15.84
2022-10-20T22:24:23.297Z,15.99
2022-10-20T22:26:54.869Z,15.99
2022-10-20T22:29:25.332Z,15.93
2022-10-20T22:31:52.801Z,16.02
2022-10-20T22:34:21.765Z,15.92
2022-10-20T22:36:49.225Z,15.87
2022-10-20T22:39:19.595Z,15.82
2022-10-20T22:41:47.081Z,15.84
2022-10-20T22:44:14.621Z,15.83
2022-10-20T22:46:42.084Z,15.72
2022-10-20T22:49:11.989Z,15.86
2022-10-20T22:51:43.389Z,15.82
2022-10-20T22:54:13.874Z,15.94
2022-10-20T22:56:41.349Z,16.03
2022-10-20T22:59:11.005Z,16.11
2022-10-20T23:01:38.490Z,16.04
2022-10-20T23:04:06.247Z,16.29
2022-10-20T23:06:34.948Z,16.14
2022-10-20T23:09:06.947Z,16.07
2022-10-20T23:11:36.774Z,15.88
2022-10-20T23:14:07.016Z,15.75
2022-10-20T23:16:34.533Z,15.64
2022-10-20T23:19:02.091Z,15.66
2022-10-20T23:21:32.596Z,15.52
2022-10-20T23:24:00.186Z,15.46
2022-10-20T23:26:31.913Z,15.47
2022-10-20T23:29:02.214Z,15.43
2022-10-20T23:31:32.774Z,15.38
2022-10-20T23:34:00.262Z,15.34
2022-10-20T23:36:27.784Z,15.36
2022-10-20T23:38:55.260Z,15.47
2022-10-20T23:41:22.845Z,15.37
2022-10-20T23:43:51.910Z,15.47
2022-10-20T23:46:19.384Z,15.64
2022-10-20T23:48:49.253Z,15.64
2022-10-20T23:51:18.455Z,15.73
2022-10-20T23:53:45.906Z,15.56
2022-10-20T23:56:13.368Z,15.45
2022-10-20T23:58:43.276Z,15.37
